Estación de La capilla

Ultimos registro cada 15 minutos 50
Estación Fecha / Hora Temperatura Humedad Lluvia Velocidad Dirección Radiación Presion
50 La capilla 08-05-2026 12:15 9,2 98 0 0 360 156 1095,9
49 La capilla 08-05-2026 12:00 8,8 97 0 0 360 107 1095,8
48 La capilla 08-05-2026 11:45 8,7 97 0 0 360 90 1095,9
47 La capilla 08-05-2026 11:30 8,7 98 0 0 360 70 1096
46 La capilla 08-05-2026 11:15 8,5 98 0 0 360 86 1096,2
45 La capilla 08-05-2026 11:00 8,2 98 0 0 360 111 1096,1
44 La capilla 08-05-2026 10:45 8,2 99 0 0 360 132 1096,1
43 La capilla 08-05-2026 10:30 7,9 99 0 0 360 104 1096,3
42 La capilla 08-05-2026 10:15 7,8 99 0 0 360 100 1096,4
41 La capilla 08-05-2026 10:00 7,7 99 0 0 360 77 1096,4
40 La capilla 08-05-2026 09:45 7,5 99 0 0 360 37 1096,6
39 La capilla 08-05-2026 09:30 7,3 99 0 0 360 42 1096,4
38 La capilla 08-05-2026 09:15 7,3 99 0 0 360 21 1096,5
37 La capilla 08-05-2026 09:00 7,2 98 0 0 360 32 1096,2
36 La capilla 08-05-2026 08:45 7,1 98 0 0 360 35 1096,1
35 La capilla 08-05-2026 08:30 7,1 98 0 0 360 19 1096
34 La capilla 08-05-2026 08:15 7 98 0 0 360 16 1095,9
33 La capilla 08-05-2026 08:00 7 98 0 0,4 360 9 1095,7
32 La capilla 08-05-2026 07:45 7 98 0,2 0 360 0 1095,6
31 La capilla 08-05-2026 07:30 7,1 98 0,2 0 360 0 1095,5
30 La capilla 08-05-2026 07:15 7,1 98 0 0 360 0 1095,6
29 La capilla 08-05-2026 07:00 7 98 0,2 0 360 0 1095,7
28 La capilla 08-05-2026 06:45 7 98 0,2 0 360 0 1095,5
27 La capilla 08-05-2026 06:30 7 98 0,2 0 360 0 1095,5
26 La capilla 08-05-2026 06:15 7 98 0 0,4 360 0 1095,3
25 La capilla 08-05-2026 06:00 7 98 0 0,4 360 0 1095,4
24 La capilla 08-05-2026 05:45 7 97 0 0 360 0 1095,3
23 La capilla 08-05-2026 05:30 7,2 97 0,2 0,4 360 0 1095,5
22 La capilla 08-05-2026 05:15 7,2 97 0,4 0 360 0 1095,6
21 La capilla 08-05-2026 05:00 7,3 97 0,2 0 360 0 1095,6
20 La capilla 08-05-2026 04:45 7,3 97 0,2 0 360 0 1095,8
19 La capilla 08-05-2026 04:30 7,3 97 0 0,4 360 0 1095,8
18 La capilla 08-05-2026 04:15 7,4 96 0,4 0 360 0 1095,8
17 La capilla 08-05-2026 04:00 7,5 96 0 0 360 0 1096,4
16 La capilla 08-05-2026 03:45 7,6 95 0,2 0 360 0 1096,3
15 La capilla 08-05-2026 03:30 7,7 95 0,4 0 360 0 1096,6
14 La capilla 08-05-2026 03:15 7,7 94 0 0 360 0 1096,9
13 La capilla 08-05-2026 03:00 7,7 94 0 0 360 0 1097
12 La capilla 08-05-2026 02:45 7,7 94 0 0 360 0 1096,8
11 La capilla 08-05-2026 02:30 7,7 94 0 0 360 0 1096,8
10 La capilla 08-05-2026 02:15 7,6 94 0 0 360 0 1097,3
9 La capilla 08-05-2026 02:00 7,6 94 0 0 360 0 1097,5
8 La capilla 08-05-2026 01:45 7,6 94 0 0 360 0 1097,6
7 La capilla 08-05-2026 01:30 7,6 94 0 0 360 0 1097,8
6 La capilla 08-05-2026 01:15 7,5 94 0 0 360 0 1098,2
5 La capilla 08-05-2026 01:00 7,4 94 0 0 360 0 1098,5
4 La capilla 08-05-2026 00:45 7,4 94 0 0 360 0 1098,5
3 La capilla 08-05-2026 00:30 7,4 94 0 0 360 0 1098,7
2 La capilla 08-05-2026 00:15 7,3 93 0 0 360 0 1098,8
1 La capilla 08-05-2026 00:00 7,4 94 0 0 360 0 1099,1